Quantico Creek — WDF5735 — position and weather

sailwx.info

Track history (hours):
 
Tides and Currents Weather Stations Pressure Air Temp Water Temp Dewpoint Dewpoint Depression Visibility Wind Speed Wind Dir Waves Ship Positions

Quantico Creek

Owner: Vane Line Bunkering, Inc., Philadelphia, PA. More information available from US FCC via Universal Licensing System and Coast Guard Vessel Documentation Center.

Last reported at 2017-Oct-19 22:01 UTC. Time now 2017-Oct-19 22:02 UTC.
Position N 40°40' W 074°00'.

Length 31 m; draft 3.9 m.

Type: Other ship. MMSI: 367466650.

Date/timePositionNaut miles runAvg speedWind from/ knotsBaromVisibWave heightAir tempDewpointWater temp
2017-Oct-19 22:01N 40°40' W 074°00'0 0.5
2017-Oct-19 21:31N 40°40' W 074°00'0 0.0
2017-Oct-19 21:01N 40°40' W 074°00'0 0.0
2017-Oct-19 20:31N 40°40' W 074°00'0 0.0
2017-Oct-19 20:01N 40°40' W 074°00'0 0.0
2017-Oct-19 19:30N 40°40' W 074°00'0 0.2
2017-Oct-19 19:01N 40°40' W 074°00'0 0.1
2017-Oct-19 18:30N 40°40' W 074°00'0 0.2
2017-Oct-19 18:00N 40°40' W 074°00'0 0.0
2017-Oct-19 17:31N 40°40' W 074°00'0 0.0
2017-Oct-19 17:01N 40°40' W 074°00'0 0.0
2017-Oct-19 16:30N 40°40' W 074°00'0 0.0
2017-Oct-19 16:01N 40°40' W 074°00'0 0.0
2017-Oct-19 15:31N 40°40' W 074°00'0 0.1
2017-Oct-19 15:00N 40°40' W 074°01'3 6.5
2017-Oct-19 14:31N 40°39' W 074°05'3 6.3
2017-Oct-19 14:00N 40°39' W 074°09'2 4.1
2017-Oct-19 13:30N 40°41' W 074°08'3 5.5
2017-Oct-19 13:01N 40°39' W 074°08'2 3.2
2017-Oct-19 12:30N 40°39' W 074°06'2 3.9
2017-Oct-19 12:01N 40°40' W 074°04'1 1.6
2017-Oct-19 11:31N 40°40' W 074°03'4 7.7
2017-Oct-19 11:00N 40°39' W 074°07'2 4.9
2017-Oct-19 10:31N 40°41' W 074°09'0 0.2
2017-Oct-19 10:01N 40°41' W 074°09'1 1.4
2017-Oct-19 09:31N 40°41' W 074°09'0 0.0
2017-Oct-19 09:01N 40°41' W 074°09'0 0.0
2017-Oct-19 08:31N 40°41' W 074°09'0 0.0
2017-Oct-19 08:00N 40°41' W 074°09'0 0.0
2017-Oct-19 07:30N 40°41' W 074°09'3 5.2
2017-Oct-19 07:00N 40°39' W 074°10'0 0.3
2017-Oct-19 06:30N 40°39' W 074°10'3 6.1
2017-Oct-19 06:00N 40°39' W 074°06'4 7.7
2017-Oct-19 05:30N 40°40' W 074°01'1 1.3
2017-Oct-19 05:01N 40°40' W 074°00'0 0.1
2017-Oct-19 04:31N 40°40' W 074°00'0 0.0
2017-Oct-19 04:01N 40°40' W 074°00'0 0.0
2017-Oct-19 03:31N 40°40' W 074°00'0 0.0
2017-Oct-19 03:00N 40°40' W 074°00'0 0.0
2017-Oct-19 02:31N 40°40' W 074°00'0 0.0
2017-Oct-19 02:01N 40°40' W 074°00'0 0.0
2017-Oct-19 01:31N 40°40' W 074°00'0 0.0
2017-Oct-19 01:00N 40°40' W 074°00'0 0.0
2017-Oct-19 00:31N 40°40' W 074°00'0 0.0
2017-Oct-19 00:01N 40°40' W 074°00'0 0.0
2017-Oct-18 23:31N 40°40' W 074°00'0 0.0
2017-Oct-18 23:00N 40°40' W 074°00'0 0.5
2017-Oct-18 22:31N 40°40' W 074°00'0 0.0
2017-Oct-18 22:01N 40°40' W 074°00'4 7.2
2017-Oct-18 21:31N 40°39' W 074°05'4 7.9
2017-Oct-18 21:01N 40°39' W 074°10'2 4.2
2017-Oct-18 20:30N 40°38' W 074°12'0 0.4
2017-Oct-18 19:55N 40°38' W 074°12'0 0.0
2017-Oct-18 19:30N 40°38' W 074°12'3 5.2
2017-Oct-18 19:00N 40°39' W 074°09'1 2.8
2017-Oct-18 18:31N 40°39' W 074°07'1 2.6
2017-Oct-18 18:01N 40°39' W 074°05'2 5.0
2017-Oct-18 17:31N 40°39' W 074°02'2 3.6
2017-Oct-18 17:01N 40°40' W 074°00'0 0.1
2017-Oct-18 16:30N 40°40' W 074°00'0 0.0
2017-Oct-18 16:01N 40°40' W 074°00'0 0.0
2017-Oct-18 15:31N 40°40' W 074°00'0 0.0
2017-Oct-18 15:01N 40°40' W 074°00'0 0.3
2017-Oct-18 14:01N 40°40' W 074°00'3 5.8
2017-Oct-18 13:30N 40°39' W 074°04'4 7.1
2017-Oct-18 13:00N 40°39' W 074°09'1 1.2
2017-Oct-18 12:30N 40°39' W 074°09'2 4.2
2017-Oct-18 11:55N 40°39' W 074°06'0 0.0
2017-Oct-18 11:30N 40°39' W 074°06'0 0.8
2017-Oct-18 11:00N 40°39' W 074°05'3 6.5
2017-Oct-18 10:31N 40°41' W 074°02'1 1.9
2017-Oct-18 10:01N 40°41' W 074°01'1 2.2
2017-Oct-18 09:31N 40°40' W 074°00'0 0.0
2017-Oct-18 09:01N 40°40' W 074°00'0 0.0
2017-Oct-18 08:31N 40°40' W 074°00'0 0.0
2017-Oct-18 08:01N 40°40' W 074°00'0 0.0
2017-Oct-18 07:31N 40°40' W 074°00'0 0.0
2017-Oct-18 07:01N 40°40' W 074°00'4 7.2
2017-Oct-18 06:31N 40°39' W 074°05'2 3.6
2017-Oct-18 06:00N 40°39' W 074°07'2 5.0
2017-Oct-18 05:31N 40°39' W 074°04'2 4.6
2017-Oct-18 05:01N 40°40' W 074°01'0 0.1
2017-Oct-18 04:30N 40°40' W 074°01'1 1.5
2017-Oct-18 04:00N 40°40' W 074°00'1 2.2
2017-Oct-18 03:31N 40°41' W 074°01'0 0.0
2017-Oct-18 03:01N 40°41' W 074°01'1 1.8
2017-Oct-18 02:31N 40°41' W 074°02'3 6.4
2017-Oct-18 02:00N 40°38' W 074°04'0 0.3
2017-Oct-18 01:30N 40°38' W 074°04'0 0.3
2017-Oct-18 01:00N 40°38' W 074°04'0 0.1
2017-Oct-18 00:31N 40°38' W 074°04'0 0.0
2017-Oct-18 00:01N 40°38' W 074°04'0 0.0
2017-Oct-17 23:30N 40°38' W 074°04'0 0.0
2017-Oct-17 23:01N 40°38' W 074°04'0 0.0
2017-Oct-17 22:31N 40°38' W 074°04'0 0.0
2017-Oct-17 22:01N 40°38' W 074°04'0 0.0
2017-Oct-17 21:31N 40°38' W 074°04'0 0.2
2017-Oct-17 21:01N 40°38' W 074°04'2 4.3
2017-Oct-17 20:31N 40°39' W 074°06'0 0.0
2017-Oct-17 20:01N 40°39' W 074°06'1 1.1
2017-Oct-17 19:31N 40°39' W 074°06'0 0.0
2017-Oct-17 19:01N 40°39' W 074°06'0 0.0
2017-Oct-17 18:31N 40°39' W 074°06'0 0.0
2017-Oct-17 18:01N 40°39' W 074°06'1 1.1
2017-Oct-17 17:31N 40°39' W 074°06'2 4.0
2017-Oct-17 17:00N 40°39' W 074°04'3 5.6
2017-Oct-17 16:31N 40°40' W 074°00'0 0.0
2017-Oct-17 16:00N 40°40' W 074°00'0 0.0
2017-Oct-17 15:31N 40°40' W 074°00'0 0.0
2017-Oct-17 15:01N 40°40' W 074°00'0 0.5
2017-Oct-17 14:31N 40°40' W 074°00'0 0.0
2017-Oct-17 14:01N 40°40' W 074°00'0 0.8
2017-Oct-17 13:31N 40°40' W 074°01'3 5.4
2017-Oct-17 13:00N 40°42' W 073°59'1 1.6
2017-Oct-17 12:30N 40°42' W 073°58'0 0.0
2017-Oct-17 12:00N 40°42' W 073°58'4 7.6
2017-Oct-17 11:31N 40°41' W 074°03'2 4.4
2017-Oct-17 11:01N 40°39' W 074°05'2 3.1
2017-Oct-17 10:30N 40°39' W 074°07'1 2.0
2017-Oct-17 10:01N 40°39' W 074°06'0 0.0
2017-Oct-17 09:30N 40°39' W 074°06'0 0.0
2017-Oct-17 09:00N 40°39' W 074°06'0 0.0
2017-Oct-17 08:30N 40°39' W 074°06'0 0.0
2017-Oct-17 08:01N 40°39' W 074°06'0 0.0
2017-Oct-17 07:30N 40°39' W 074°06'0 0.0
2017-Oct-17 07:00N 40°39' W 074°06'0 0.0
2017-Oct-17 06:30N 40°39' W 074°06'0 0.0
2017-Oct-17 06:00N 40°39' W 074°06'0 0.0
2017-Oct-17 05:30N 40°39' W 074°06'0 0.8
2017-Oct-17 05:01N 40°39' W 074°05'2 3.5
2017-Oct-17 04:30N 40°38' W 074°03'1 1.3
2017-Oct-17 04:01N 40°37' W 074°04'0 1.0
2017-Oct-17 03:30N 40°37' W 074°03'0 0.0
2017-Oct-17 03:00N 40°37' W 074°03'0 0.0
2017-Oct-17 02:30N 40°37' W 074°03'0 0.0
2017-Oct-17 02:01N 40°37' W 074°03'0 0.0
2017-Oct-17 01:31N 40°37' W 074°03'0 0.1
2017-Oct-17 01:00N 40°37' W 074°03'0 0.0
2017-Oct-17 00:30N 40°37' W 074°03'0 0.0
2017-Oct-17 00:00N 40°37' W 074°03'0 0.3
2017-Oct-16 23:30N 40°37' W 074°03'0 0.2
2017-Oct-16 23:00N 40°37' W 074°04'0 0.0
2017-Oct-16 22:30N 40°37' W 074°04'0 0.1
2017-Oct-16 22:00N 40°37' W 074°04'0 0.0
2017-Oct-16 21:30N 40°37' W 074°04'0 0.0
2017-Oct-16 21:00N 40°37' W 074°04'0 0.2
2017-Oct-16 20:31N 40°37' W 074°03'0 0.1
2017-Oct-16 20:01N 40°37' W 074°03'0 0.1
2017-Oct-16 19:30N 40°37' W 074°03'0 0.1
2017-Oct-16 19:01N 40°37' W 074°03'0 0.1
2017-Oct-16 18:30N 40°37' W 074°03'1 1.7
2017-Oct-16 18:00N 40°38' W 074°03'2 4.4
2017-Oct-16 17:31N 40°40' W 074°04'0 0.2
2017-Oct-16 17:00N 40°40' W 074°04'1 2.6
2017-Oct-16 16:30N 40°39' W 074°05'0 0.6
2017-Oct-16 16:00N 40°39' W 074°05'2 4.4
2017-Oct-16 15:30N 40°39' W 074°02'2 3.3
2017-Oct-16 15:00N 40°40' W 074°00'0 0.0
2017-Oct-16 14:01N 40°40' W 074°00'0 0.0
2017-Oct-16 13:31N 40°40' W 074°00'0 0.0
2017-Oct-16 13:01N 40°40' W 074°00'0 0.0
2017-Oct-16 12:30N 40°40' W 074°00'0 0.0
2017-Oct-16 12:00N 40°40' W 074°00'0 0.6
2017-Oct-16 11:31N 40°40' W 074°00'0 0.0
2017-Oct-16 11:00N 40°40' W 074°00'0 0.0
2017-Oct-16 10:30N 40°40' W 074°00'0 0.0
2017-Oct-16 10:00N 40°40' W 074°00'0 0.0
2017-Oct-16 09:31N 40°40' W 074°00'0 0.0
2017-Oct-16 09:00N 40°40' W 074°00'2 3.6
2017-Oct-16 08:30N 40°39' W 074°02'4 8.8
2017-Oct-16 08:00N 40°39' W 074°08'4 7.5
2017-Oct-16 07:30N 40°37' W 074°12'1 1.6
2017-Oct-16 07:00N 40°36' W 074°12'1 1.4
2017-Oct-16 06:30N 40°37' W 074°12'2 4.8
2017-Oct-16 06:01N 40°39' W 074°11'4 7.9
2017-Oct-16 05:30N 40°39' W 074°06'5 9.0
2017-Oct-16 05:00N 40°41' W 074°01'5 9.3
2017-Oct-16 04:30N 40°45' W 073°58'5 9.6
2017-Oct-16 04:00N 40°48' W 073°52'4 8.1
2017-Oct-16 03:28N 40°50' W 073°47'6 9.0
2017-Oct-16 02:51N 40°54' W 073°42'12 0.9
2017-Oct-15 12:50N 40°59' W 073°27'3 8.4
2017-Oct-15 12:30N 40°58' W 073°31'14 8.2
2017-Oct-15 10:48N 40°50' W 073°46'3 7.0
2017-Oct-15 10:26N 40°48' W 073°48'4 8.6
2017-Oct-15 09:56N 40°48' W 073°54'3 8.0
2017-Oct-15 09:30N 40°46' W 073°57'3 7.0
2017-Oct-15 09:00N 40°42' W 073°59'5 9.0
2017-Oct-15 08:30N 40°39' W 074°03'3 5.0
2017-Oct-15 08:00N 40°39' W 074°07'0 0.3
2017-Oct-15 07:30N 40°39' W 074°06'3 7.1
2017-Oct-15 07:00N 40°39' W 074°02'2 3.1
2017-Oct-15 06:31N 40°40' W 074°00'0 0.0
2017-Oct-15 06:00N 40°40' W 074°00'0 0.0
2017-Oct-15 05:30N 40°40' W 074°00'0 0.0
2017-Oct-15 05:00N 40°40' W 074°00'0 0.0
2017-Oct-15 04:30N 40°40' W 074°00'0 0.0
2017-Oct-15 04:00N 40°40' W 074°00'0 0.0
2017-Oct-15 03:30N 40°40' W 074°00'0 0.0
2017-Oct-15 03:01N 40°40' W 074°00'0 0.0
2017-Oct-15 02:31N 40°40' W 074°00'0 0.0
2017-Oct-15 02:00N 40°40' W 074°00'0 0.0
2017-Oct-15 01:30N 40°40' W 074°00'0 0.0
2017-Oct-15 01:01N 40°40' W 074°00'2 4.8
2017-Oct-15 00:30N 40°39' W 074°03'2 4.6
2017-Oct-15 00:00N 40°39' W 074°06'4 7.5
2017-Oct-14 23:30N 40°41' W 074°02'0 0.9
2017-Oct-14 23:00N 40°41' W 074°01'1 1.8
2017-Oct-14 22:30N 40°40' W 074°00'0 0.5
2017-Oct-14 22:00N 40°40' W 074°01'5 9.1
2017-Oct-14 21:30N 40°39' W 074°06'0 0.1
2017-Oct-14 21:00N 40°39' W 074°07'0 0.5
2017-Oct-14 20:30N 40°39' W 074°06'4 7.4
2017-Oct-14 20:00N 40°41' W 074°02'3 6.7
2017-Oct-14 19:30N 40°43' W 073°58'3 6.5
2017-Oct-14 19:00N 40°46' W 073°57'2 4.8
2017-Oct-14 18:30N 40°47' W 073°55'3 6.7
2017-Oct-14 18:00N 40°48' W 073°50'3 6.3
2017-Oct-14 17:30N 40°50' W 073°47'5 8.8
2017-Oct-14 16:58N 40°53' W 073°43'3 5.2
2017-Oct-14 16:28N 40°55' W 073°40'7 0.4
2017-Oct-13 22:03N 40°50' W 073°47'0 7.5
2017-Oct-13 22:00N 40°49' W 073°47'0 0.0
2017-Oct-13 11:15N 40°49' W 073°47'0 0.0
2017-Oct-13 08:32N 40°49' W 073°47'0 0.0
2017-Oct-13 08:28N 40°49' W 073°47'0 0.0
2017-Oct-13 07:58N 40°49' W 073°47'0 0.0
2017-Oct-13 07:21N 40°49' W 073°47'0 0.1
2017-Oct-13 05:12N 40°49' W 073°47'0 0.0
2017-Oct-13 04:46N 40°49' W 073°47'0 0.0
2017-Oct-13 04:26N 40°49' W 073°47'0 0.0
2017-Oct-13 03:25N 40°49' W 073°47'0 0.0
2017-Oct-13 02:59N 40°49' W 073°47'0 0.0
2017-Oct-12 01:18N 40°49' W 073°47'0 0.0
2017-Oct-12 00:47N 40°49' W 073°47'0 0.0
2017-Oct-11 19:51N 40°49' W 073°47'1 0.4
2017-Oct-11 18:13N 40°48' W 073°47'2 7.5
2017-Oct-11 18:00N 40°48' W 073°49'4 8.0
2017-Oct-11 17:30N 40°48' W 073°55'4 8.9
2017-Oct-11 17:00N 40°44' W 073°58'6 0.3
2017-Oct-11 00:01N 40°40' W 074°03'2 4.3
2017-Oct-10 23:30N 40°39' W 074°05'2 4.8
2017-Oct-10 23:01N 40°39' W 074°02'2 3.8
2017-Oct-10 22:30N 40°40' W 074°00'0 0.0
2017-Oct-10 22:00N 40°40' W 074°00'0 0.0
2017-Oct-10 21:30N 40°40' W 074°00'0 0.0
2017-Oct-10 21:00N 40°40' W 074°00'0 0.1
2017-Oct-10 20:30N 40°40' W 074°00'0 0.0
2017-Oct-10 20:00N 40°40' W 074°00'0 0.0
2017-Oct-10 19:30N 40°40' W 074°00'0 0.0
2017-Oct-10 19:01N 40°40' W 074°00'0 0.0
2017-Oct-10 18:30N 40°40' W 074°00'0 0.0
2017-Oct-10 18:00N 40°40' W 074°00'2 4.6
2017-Oct-10 17:30N 40°39' W 074°03'5 9.5
2017-Oct-10 17:00N 40°39' W 074°09'1 2.0
2017-Oct-10 16:30N 40°40' W 074°09'1 2.4
2017-Oct-10 16:00N 40°41' W 074°09'1 1.0
2017-Oct-10 15:30N 40°41' W 074°09'0 0.0
2017-Oct-10 15:01N 40°41' W 074°09'0 0.0
2017-Oct-10 14:00N 40°41' W 074°09'0 0.0
2017-Oct-10 13:30N 40°41' W 074°09'0 0.0
2017-Oct-10 13:00N 40°41' W 074°09'0 0.0
2017-Oct-10 12:30N 40°41' W 074°09'0 0.0
2017-Oct-10 12:00N 40°41' W 074°09'0 0.0
2017-Oct-10 11:30N 40°41' W 074°09'0 0.0
2017-Oct-10 11:00N 40°41' W 074°09'0 0.0
2017-Oct-10 10:30N 40°41' W 074°09'1 2.1
2017-Oct-10 10:00N 40°41' W 074°08'2 4.1
2017-Oct-10 09:30N 40°39' W 074°08'2 3.6
2017-Oct-10 09:00N 40°39' W 074°05'2 5.0
2017-Oct-10 08:30N 40°40' W 074°02'2 4.2
2017-Oct-10 08:00N 40°41' W 074°00'2 4.1
2017-Oct-10 07:30N 40°40' W 074°02'5 9.1
2017-Oct-10 07:00N 40°39' W 074°08'3 6.7
2017-Oct-10 06:30N 40°38' W 074°12'0 0.3
2017-Oct-10 05:59N 40°38' W 074°12'0 0.0
2017-Oct-10 05:24N 40°38' W 074°12'0 0.0
2017-Oct-10 05:00N 40°38' W 074°12'0 0.0
2017-Oct-10 04:30N 40°38' W 074°12'0 0.0
2017-Oct-10 04:00N 40°38' W 074°12'0 0.0
2017-Oct-10 03:30N 40°38' W 074°12'0 0.0
2017-Oct-10 03:00N 40°38' W 074°12'0 0.0
2017-Oct-10 02:30N 40°38' W 074°12'4 7.8
2017-Oct-10 02:01N 40°39' W 074°07'5 9.2
2017-Oct-10 01:30N 40°40' W 074°01'1 1.4
2017-Oct-10 01:01N 40°40' W 074°00'0 0.0
2017-Oct-10 00:30N 40°40' W 074°00'0 1.0
2017-Oct-10 00:00N 40°40' W 074°01'0 0.1
2017-Oct-09 23:30N 40°40' W 074°01'3 5.8
2017-Oct-09 23:01N 40°39' W 074°05'4 7.4
2017-Oct-09 22:30N 40°38' W 074°09'3 5.8
2017-Oct-09 22:00N 40°39' W 074°06'  
Track history (hours):
 
Tides and Currents Weather Stations Pressure Air Temp Water Temp Dewpoint Dewpoint Depression Visibility Wind Speed Wind Dir Waves Ship Positions

Quantico Creek

Owner: Vane Line Bunkering, Inc., Philadelphia, PA. More information available from US FCC via Universal Licensing System and Coast Guard Vessel Documentation Center.

Last reported at 2017-Oct-19 22:01 UTC. Time now 2017-Oct-19 22:02 UTC.
Position N 40°40' W 074°00'.

Length 31 m; draft 3.9 m.

Type: Other ship. MMSI: 367466650.

Date/timePositionNaut miles runAvg speedWind from/ knotsBaromVisibWave heightAir tempDewpointWater temp
2017-Oct-19 22:01N 40°40' W 074°00'0 0.5
2017-Oct-19 21:31N 40°40' W 074°00'0 0.0
2017-Oct-19 21:01N 40°40' W 074°00'0 0.0
2017-Oct-19 20:31N 40°40' W 074°00'0 0.0
2017-Oct-19 20:01N 40°40' W 074°00'0 0.0
2017-Oct-19 19:30N 40°40' W 074°00'0 0.2
2017-Oct-19 19:01N 40°40' W 074°00'0 0.1
2017-Oct-19 18:30N 40°40' W 074°00'0 0.2
2017-Oct-19 18:00N 40°40' W 074°00'0 0.0
2017-Oct-19 17:31N 40°40' W 074°00'0 0.0
2017-Oct-19 17:01N 40°40' W 074°00'0 0.0
2017-Oct-19 16:30N 40°40' W 074°00'0 0.0
2017-Oct-19 16:01N 40°40' W 074°00'0 0.0
2017-Oct-19 15:31N 40°40' W 074°00'0 0.1
2017-Oct-19 15:00N 40°40' W 074°01'3 6.5
2017-Oct-19 14:31N 40°39' W 074°05'3 6.3
2017-Oct-19 14:00N 40°39' W 074°09'2 4.1
2017-Oct-19 13:30N 40°41' W 074°08'3 5.5
2017-Oct-19 13:01N 40°39' W 074°08'2 3.2
2017-Oct-19 12:30N 40°39' W 074°06'2 3.9
2017-Oct-19 12:01N 40°40' W 074°04'1 1.6
2017-Oct-19 11:31N 40°40' W 074°03'4 7.7
2017-Oct-19 11:00N 40°39' W 074°07'2 4.9
2017-Oct-19 10:31N 40°41' W 074°09'0 0.2
2017-Oct-19 10:01N 40°41' W 074°09'1 1.4
2017-Oct-19 09:31N 40°41' W 074°09'0 0.0
2017-Oct-19 09:01N 40°41' W 074°09'0 0.0
2017-Oct-19 08:31N 40°41' W 074°09'0 0.0
2017-Oct-19 08:00N 40°41' W 074°09'0 0.0
2017-Oct-19 07:30N 40°41' W 074°09'3 5.2
2017-Oct-19 07:00N 40°39' W 074°10'0 0.3
2017-Oct-19 06:30N 40°39' W 074°10'3 6.1
2017-Oct-19 06:00N 40°39' W 074°06'4 7.7
2017-Oct-19 05:30N 40°40' W 074°01'1 1.3
2017-Oct-19 05:01N 40°40' W 074°00'0 0.1
2017-Oct-19 04:31N 40°40' W 074°00'0 0.0
2017-Oct-19 04:01N 40°40' W 074°00'0 0.0
2017-Oct-19 03:31N 40°40' W 074°00'0 0.0
2017-Oct-19 03:00N 40°40' W 074°00'0 0.0
2017-Oct-19 02:31N 40°40' W 074°00'0 0.0
2017-Oct-19 02:01N 40°40' W 074°00'0 0.0
2017-Oct-19 01:31N 40°40' W 074°00'0 0.0
2017-Oct-19 01:00N 40°40' W 074°00'0 0.0
2017-Oct-19 00:31N 40°40' W 074°00'0 0.0
2017-Oct-19 00:01N 40°40' W 074°00'0 0.0
2017-Oct-18 23:31N 40°40' W 074°00'0 0.0
2017-Oct-18 23:00N 40°40' W 074°00'0 0.5
2017-Oct-18 22:31N 40°40' W 074°00'0 0.0
2017-Oct-18 22:01N 40°40' W 074°00'4 7.2
2017-Oct-18 21:31N 40°39' W 074°05'4 7.9
2017-Oct-18 21:01N 40°39' W 074°10'2 4.2
2017-Oct-18 20:30N 40°38' W 074°12'0 0.4
2017-Oct-18 19:55N 40°38' W 074°12'0 0.0
2017-Oct-18 19:30N 40°38' W 074°12'3 5.2
2017-Oct-18 19:00N 40°39' W 074°09'1 2.8
2017-Oct-18 18:31N 40°39' W 074°07'1 2.6
2017-Oct-18 18:01N 40°39' W 074°05'2 5.0
2017-Oct-18 17:31N 40°39' W 074°02'2 3.6
2017-Oct-18 17:01N 40°40' W 074°00'0 0.1
2017-Oct-18 16:30N 40°40' W 074°00'0 0.0
2017-Oct-18 16:01N 40°40' W 074°00'0 0.0
2017-Oct-18 15:31N 40°40' W 074°00'0 0.0
2017-Oct-18 15:01N 40°40' W 074°00'0 0.3
2017-Oct-18 14:01N 40°40' W 074°00'3 5.8
2017-Oct-18 13:30N 40°39' W 074°04'4 7.1
2017-Oct-18 13:00N 40°39' W 074°09'1 1.2
2017-Oct-18 12:30N 40°39' W 074°09'2 4.2
2017-Oct-18 11:55N 40°39' W 074°06'0 0.0
2017-Oct-18 11:30N 40°39' W 074°06'0 0.8
2017-Oct-18 11:00N 40°39' W 074°05'3 6.5
2017-Oct-18 10:31N 40°41' W 074°02'1 1.9
2017-Oct-18 10:01N 40°41' W 074°01'1 2.2
2017-Oct-18 09:31N 40°40' W 074°00'0 0.0
2017-Oct-18 09:01N 40°40' W 074°00'0 0.0
2017-Oct-18 08:31N 40°40' W 074°00'0 0.0
2017-Oct-18 08:01N 40°40' W 074°00'0 0.0
2017-Oct-18 07:31N 40°40' W 074°00'0 0.0
2017-Oct-18 07:01N 40°40' W 074°00'4 7.2
2017-Oct-18 06:31N 40°39' W 074°05'2 3.6
2017-Oct-18 06:00N 40°39' W 074°07'2 5.0
2017-Oct-18 05:31N 40°39' W 074°04'2 4.6
2017-Oct-18 05:01N 40°40' W 074°01'0 0.1
2017-Oct-18 04:30N 40°40' W 074°01'1 1.5
2017-Oct-18 04:00N 40°40' W 074°00'1 2.2
2017-Oct-18 03:31N 40°41' W 074°01'0 0.0
2017-Oct-18 03:01N 40°41' W 074°01'1 1.8
2017-Oct-18 02:31N 40°41' W 074°02'3 6.4
2017-Oct-18 02:00N 40°38' W 074°04'0 0.3
2017-Oct-18 01:30N 40°38' W 074°04'0 0.3
2017-Oct-18 01:00N 40°38' W 074°04'0 0.1
2017-Oct-18 00:31N 40°38' W 074°04'0 0.0
2017-Oct-18 00:01N 40°38' W 074°04'0 0.0
2017-Oct-17 23:30N 40°38' W 074°04'0 0.0
2017-Oct-17 23:01N 40°38' W 074°04'0 0.0
2017-Oct-17 22:31N 40°38' W 074°04'0 0.0
2017-Oct-17 22:01N 40°38' W 074°04'0 0.0
2017-Oct-17 21:31N 40°38' W 074°04'0 0.2
2017-Oct-17 21:01N 40°38' W 074°04'2 4.3
2017-Oct-17 20:31N 40°39' W 074°06'0 0.0
2017-Oct-17 20:01N 40°39' W 074°06'1 1.1
2017-Oct-17 19:31N 40°39' W 074°06'0 0.0
2017-Oct-17 19:01N 40°39' W 074°06'0 0.0
2017-Oct-17 18:31N 40°39' W 074°06'0 0.0
2017-Oct-17 18:01N 40°39' W 074°06'1 1.1
2017-Oct-17 17:31N 40°39' W 074°06'2 4.0
2017-Oct-17 17:00N 40°39' W 074°04'3 5.6
2017-Oct-17 16:31N 40°40' W 074°00'0 0.0
2017-Oct-17 16:00N 40°40' W 074°00'0 0.0
2017-Oct-17 15:31N 40°40' W 074°00'0 0.0
2017-Oct-17 15:01N 40°40' W 074°00'0 0.5
2017-Oct-17 14:31N 40°40' W 074°00'0 0.0
2017-Oct-17 14:01N 40°40' W 074°00'0 0.8
2017-Oct-17 13:31N 40°40' W 074°01'3 5.4
2017-Oct-17 13:00N 40°42' W 073°59'1 1.6
2017-Oct-17 12:30N 40°42' W 073°58'0 0.0
2017-Oct-17 12:00N 40°42' W 073°58'4 7.6
2017-Oct-17 11:31N 40°41' W 074°03'2 4.4
2017-Oct-17 11:01N 40°39' W 074°05'2 3.1
2017-Oct-17 10:30N 40°39' W 074°07'1 2.0
2017-Oct-17 10:01N 40°39' W 074°06'0 0.0
2017-Oct-17 09:30N 40°39' W 074°06'0 0.0
2017-Oct-17 09:00N 40°39' W 074°06'0 0.0
2017-Oct-17 08:30N 40°39' W 074°06'0 0.0
2017-Oct-17 08:01N 40°39' W 074°06'0 0.0
2017-Oct-17 07:30N 40°39' W 074°06'0 0.0
2017-Oct-17 07:00N 40°39' W 074°06'0 0.0
2017-Oct-17 06:30N 40°39' W 074°06'0 0.0
2017-Oct-17 06:00N 40°39' W 074°06'0 0.0
2017-Oct-17 05:30N 40°39' W 074°06'0 0.8
2017-Oct-17 05:01N 40°39' W 074°05'2 3.5
2017-Oct-17 04:30N 40°38' W 074°03'1 1.3
2017-Oct-17 04:01N 40°37' W 074°04'0 1.0
2017-Oct-17 03:30N 40°37' W 074°03'0 0.0
2017-Oct-17 03:00N 40°37' W 074°03'0 0.0
2017-Oct-17 02:30N 40°37' W 074°03'0 0.0
2017-Oct-17 02:01N 40°37' W 074°03'0 0.0
2017-Oct-17 01:31N 40°37' W 074°03'0 0.1
2017-Oct-17 01:00N 40°37' W 074°03'0 0.0
2017-Oct-17 00:30N 40°37' W 074°03'0 0.0
2017-Oct-17 00:00N 40°37' W 074°03'0 0.3
2017-Oct-16 23:30N 40°37' W 074°03'0 0.2
2017-Oct-16 23:00N 40°37' W 074°04'0 0.0
2017-Oct-16 22:30N 40°37' W 074°04'0 0.1
2017-Oct-16 22:00N 40°37' W 074°04'0 0.0
2017-Oct-16 21:30N 40°37' W 074°04'0 0.0
2017-Oct-16 21:00N 40°37' W 074°04'0 0.2
2017-Oct-16 20:31N 40°37' W 074°03'0 0.1
2017-Oct-16 20:01N 40°37' W 074°03'0 0.1
2017-Oct-16 19:30N 40°37' W 074°03'0 0.1
2017-Oct-16 19:01N 40°37' W 074°03'0 0.1
2017-Oct-16 18:30N 40°37' W 074°03'1 1.7
2017-Oct-16 18:00N 40°38' W 074°03'2 4.4
2017-Oct-16 17:31N 40°40' W 074°04'0 0.2
2017-Oct-16 17:00N 40°40' W 074°04'1 2.6
2017-Oct-16 16:30N 40°39' W 074°05'0 0.6
2017-Oct-16 16:00N 40°39' W 074°05'2 4.4
2017-Oct-16 15:30N 40°39' W 074°02'2 3.3
2017-Oct-16 15:00N 40°40' W 074°00'0 0.0
2017-Oct-16 14:01N 40°40' W 074°00'0 0.0
2017-Oct-16 13:31N 40°40' W 074°00'0 0.0
2017-Oct-16 13:01N 40°40' W 074°00'0 0.0
2017-Oct-16 12:30N 40°40' W 074°00'0 0.0
2017-Oct-16 12:00N 40°40' W 074°00'0 0.6
2017-Oct-16 11:31N 40°40' W 074°00'0 0.0
2017-Oct-16 11:00N 40°40' W 074°00'0 0.0
2017-Oct-16 10:30N 40°40' W 074°00'0 0.0
2017-Oct-16 10:00N 40°40' W 074°00'0 0.0
2017-Oct-16 09:31N 40°40' W 074°00'0 0.0
2017-Oct-16 09:00N 40°40' W 074°00'2 3.6
2017-Oct-16 08:30N 40°39' W 074°02'4 8.8
2017-Oct-16 08:00N 40°39' W 074°08'4 7.5
2017-Oct-16 07:30N 40°37' W 074°12'1 1.6
2017-Oct-16 07:00N 40°36' W 074°12'1 1.4
2017-Oct-16 06:30N 40°37' W 074°12'2 4.8
2017-Oct-16 06:01N 40°39' W 074°11'4 7.9
2017-Oct-16 05:30N 40°39' W 074°06'5 9.0
2017-Oct-16 05:00N 40°41' W 074°01'5 9.3
2017-Oct-16 04:30N 40°45' W 073°58'5 9.6
2017-Oct-16 04:00N 40°48' W 073°52'4 8.1
2017-Oct-16 03:28N 40°50' W 073°47'6 9.0
2017-Oct-16 02:51N 40°54' W 073°42'12 0.9
2017-Oct-15 12:50N 40°59' W 073°27'3 8.4
2017-Oct-15 12:30N 40°58' W 073°31'14 8.2
2017-Oct-15 10:48N 40°50' W 073°46'3 7.0
2017-Oct-15 10:26N 40°48' W 073°48'4 8.6
2017-Oct-15 09:56N 40°48' W 073°54'3 8.0
2017-Oct-15 09:30N 40°46' W 073°57'3 7.0
2017-Oct-15 09:00N 40°42' W 073°59'5 9.0
2017-Oct-15 08:30N 40°39' W 074°03'3 5.0
2017-Oct-15 08:00N 40°39' W 074°07'0 0.3
2017-Oct-15 07:30N 40°39' W 074°06'3 7.1
2017-Oct-15 07:00N 40°39' W 074°02'2 3.1
2017-Oct-15 06:31N 40°40' W 074°00'0 0.0
2017-Oct-15 06:00N 40°40' W 074°00'0 0.0
2017-Oct-15 05:30N 40°40' W 074°00'0 0.0
2017-Oct-15 05:00N 40°40' W 074°00'0 0.0
2017-Oct-15 04:30N 40°40' W 074°00'0 0.0
2017-Oct-15 04:00N 40°40' W 074°00'0 0.0
2017-Oct-15 03:30N 40°40' W 074°00'0 0.0
2017-Oct-15 03:01N 40°40' W 074°00'0 0.0
2017-Oct-15 02:31N 40°40' W 074°00'0 0.0
2017-Oct-15 02:00N 40°40' W 074°00'0 0.0
2017-Oct-15 01:30N 40°40' W 074°00'0 0.0
2017-Oct-15 01:01N 40°40' W 074°00'2 4.8
2017-Oct-15 00:30N 40°39' W 074°03'2 4.6
2017-Oct-15 00:00N 40°39' W 074°06'4 7.5
2017-Oct-14 23:30N 40°41' W 074°02'0 0.9
2017-Oct-14 23:00N 40°41' W 074°01'1 1.8
2017-Oct-14 22:30N 40°40' W 074°00'0 0.5
2017-Oct-14 22:00N 40°40' W 074°01'5 9.1
2017-Oct-14 21:30N 40°39' W 074°06'0 0.1
2017-Oct-14 21:00N 40°39' W 074°07'0 0.5
2017-Oct-14 20:30N 40°39' W 074°06'4 7.4
2017-Oct-14 20:00N 40°41' W 074°02'3 6.7
2017-Oct-14 19:30N 40°43' W 073°58'3 6.5
2017-Oct-14 19:00N 40°46' W 073°57'2 4.8
2017-Oct-14 18:30N 40°47' W 073°55'3 6.7
2017-Oct-14 18:00N 40°48' W 073°50'3 6.3
2017-Oct-14 17:30N 40°50' W 073°47'5 8.8
2017-Oct-14 16:58N 40°53' W 073°43'3 5.2
2017-Oct-14 16:28N 40°55' W 073°40'7 0.4
2017-Oct-13 22:03N 40°50' W 073°47'0 7.5
2017-Oct-13 22:00N 40°49' W 073°47'0 0.0
2017-Oct-13 11:15N 40°49' W 073°47'0 0.0
2017-Oct-13 08:32N 40°49' W 073°47'0 0.0
2017-Oct-13 08:28N 40°49' W 073°47'0 0.0
2017-Oct-13 07:58N 40°49' W 073°47'0 0.0
2017-Oct-13 07:21N 40°49' W 073°47'0 0.1
2017-Oct-13 05:12N 40°49' W 073°47'0 0.0
2017-Oct-13 04:46N 40°49' W 073°47'0 0.0
2017-Oct-13 04:26N 40°49' W 073°47'0 0.0
2017-Oct-13 03:25N 40°49' W 073°47'0 0.0
2017-Oct-13 02:59N 40°49' W 073°47'0 0.0
2017-Oct-12 01:18N 40°49' W 073°47'0 0.0
2017-Oct-12 00:47N 40°49' W 073°47'0 0.0
2017-Oct-11 19:51N 40°49' W 073°47'1 0.4
2017-Oct-11 18:13N 40°48' W 073°47'2 7.5
2017-Oct-11 18:00N 40°48' W 073°49'4 8.0
2017-Oct-11 17:30N 40°48' W 073°55'4 8.9
2017-Oct-11 17:00N 40°44' W 073°58'6 0.3
2017-Oct-11 00:01N 40°40' W 074°03'2 4.3
2017-Oct-10 23:30N 40°39' W 074°05'2 4.8
2017-Oct-10 23:01N 40°39' W 074°02'2 3.8
2017-Oct-10 22:30N 40°40' W 074°00'0 0.0
2017-Oct-10 22:00N 40°40' W 074°00'0 0.0
2017-Oct-10 21:30N 40°40' W 074°00'0 0.0
2017-Oct-10 21:00N 40°40' W 074°00'0 0.1
2017-Oct-10 20:30N 40°40' W 074°00'0 0.0
2017-Oct-10 20:00N 40°40' W 074°00'0 0.0
2017-Oct-10 19:30N 40°40' W 074°00'0 0.0
2017-Oct-10 19:01N 40°40' W 074°00'0 0.0
2017-Oct-10 18:30N 40°40' W 074°00'0 0.0
2017-Oct-10 18:00N 40°40' W 074°00'2 4.6
2017-Oct-10 17:30N 40°39' W 074°03'5 9.5
2017-Oct-10 17:00N 40°39' W 074°09'1 2.0
2017-Oct-10 16:30N 40°40' W 074°09'1 2.4
2017-Oct-10 16:00N 40°41' W 074°09'1 1.0
2017-Oct-10 15:30N 40°41' W 074°09'0 0.0
2017-Oct-10 15:01N 40°41' W 074°09'0 0.0
2017-Oct-10 14:00N 40°41' W 074°09'0 0.0
2017-Oct-10 13:30N 40°41' W 074°09'0 0.0
2017-Oct-10 13:00N 40°41' W 074°09'0 0.0
2017-Oct-10 12:30N 40°41' W 074°09'0 0.0
2017-Oct-10 12:00N 40°41' W 074°09'0 0.0
2017-Oct-10 11:30N 40°41' W 074°09'0 0.0
2017-Oct-10 11:00N 40°41' W 074°09'0 0.0
2017-Oct-10 10:30N 40°41' W 074°09'1 2.1
2017-Oct-10 10:00N 40°41' W 074°08'2 4.1
2017-Oct-10 09:30N 40°39' W 074°08'2 3.6
2017-Oct-10 09:00N 40°39' W 074°05'2 5.0
2017-Oct-10 08:30N 40°40' W 074°02'2 4.2
2017-Oct-10 08:00N 40°41' W 074°00'2 4.1
2017-Oct-10 07:30N 40°40' W 074°02'5 9.1
2017-Oct-10 07:00N 40°39' W 074°08'3 6.7
2017-Oct-10 06:30N 40°38' W 074°12'0 0.3
2017-Oct-10 05:59N 40°38' W 074°12'0 0.0
2017-Oct-10 05:24N 40°38' W 074°12'0 0.0
2017-Oct-10 05:00N 40°38' W 074°12'0 0.0
2017-Oct-10 04:30N 40°38' W 074°12'0 0.0
2017-Oct-10 04:00N 40°38' W 074°12'0 0.0
2017-Oct-10 03:30N 40°38' W 074°12'0 0.0
2017-Oct-10 03:00N 40°38' W 074°12'0 0.0
2017-Oct-10 02:30N 40°38' W 074°12'4 7.8
2017-Oct-10 02:01N 40°39' W 074°07'5 9.2
2017-Oct-10 01:30N 40°40' W 074°01'1 1.4
2017-Oct-10 01:01N 40°40' W 074°00'0 0.0
2017-Oct-10 00:30N 40°40' W 074°00'0 1.0
2017-Oct-10 00:00N 40°40' W 074°01'0 0.1
2017-Oct-09 23:30N 40°40' W 074°01'3 5.8
2017-Oct-09 23:01N 40°39' W 074°05'4 7.4
2017-Oct-09 22:30N 40°38' W 074°09'3 5.8
2017-Oct-09 22:00N 40°39' W 074°06'  

Dump ship's entire track history